createdAt,value
2022-09-17T00:01:05.146Z,68.30
2022-09-17T00:03:33.832Z,68.30
2022-09-17T00:06:05.186Z,68.10
2022-09-17T00:08:31.856Z,68.20
2022-09-17T00:10:58.568Z,68.20
2022-09-17T00:13:25.212Z,67.60
2022-09-17T00:15:52.608Z,68.10
2022-09-17T00:18:19.355Z,68.30
2022-09-17T00:20:47.030Z,68.20
2022-09-17T00:23:14.334Z,68.30
2022-09-17T00:25:41.807Z,68.20
2022-09-17T00:28:09.085Z,69.00
2022-09-17T00:30:35.917Z,68.20
2022-09-17T00:33:02.618Z,68.20
2022-09-17T00:35:29.998Z,68.30
2022-09-17T00:37:56.612Z,68.30
2022-09-17T00:40:23.649Z,68.30
2022-09-17T00:42:53.265Z,68.60
2022-09-17T00:45:20.328Z,68.40
2022-09-17T00:48:00.901Z,68.40
2022-09-17T00:50:29.755Z,68.40
2022-09-17T00:53:07.555Z,68.50
2022-09-17T00:55:39.527Z,68.40
2022-09-17T00:58:07.927Z,68.50
2022-09-17T01:00:34.583Z,68.50
2022-09-17T01:03:01.222Z,68.60
2022-09-17T01:05:33.835Z,68.70
2022-09-17T01:08:06.609Z,68.50
2022-09-17T01:10:44.899Z,68.60
2022-09-17T01:13:20.787Z,68.50
2022-09-17T01:15:50.431Z,68.70
2022-09-17T01:18:41.123Z,68.60
2022-09-17T01:21:08.085Z,68.60
2022-09-17T01:23:34.670Z,68.60
2022-09-17T01:26:04.638Z,68.90
2022-09-17T01:28:34.051Z,68.80
2022-09-17T01:31:10.110Z,68.70
2022-09-17T01:33:43.480Z,68.70
2022-09-17T01:36:20.102Z,68.70
2022-09-17T01:39:10.083Z,68.80
2022-09-17T01:42:00.338Z,68.70
2022-09-17T01:44:29.802Z,68.70
2022-09-17T01:47:01.600Z,68.90
2022-09-17T01:49:29.601Z,68.70
2022-09-17T01:51:56.483Z,68.80
2022-09-17T01:54:25.737Z,68.80
2022-09-17T01:56:56.359Z,68.70
2022-09-17T01:59:25.545Z,68.70
2022-09-17T02:01:55.295Z,68.60
2022-09-17T02:04:24.750Z,68.70
2022-09-17T02:06:54.240Z,68.70
2022-09-17T02:09:23.142Z,68.70
2022-09-17T02:11:55.707Z,68.80
2022-09-17T02:14:24.936Z,68.80
2022-09-17T02:16:55.314Z,68.80
2022-09-17T02:19:26.837Z,68.90
2022-09-17T02:21:58.725Z,68.80
2022-09-17T02:24:31.488Z,68.80
2022-09-17T02:27:01.418Z,68.80
2022-09-17T02:29:38.378Z,69.00
2022-09-17T02:32:05.364Z,68.90
2022-09-17T02:34:32.348Z,68.80
2022-09-17T02:36:59.647Z,68.90
2022-09-17T02:39:26.805Z,68.90
2022-09-17T02:42:05.724Z,68.90
2022-09-17T02:44:32.460Z,69.00
2022-09-17T02:47:18.283Z,68.80
2022-09-17T02:49:44.949Z,69.00
2022-09-17T02:52:18.892Z,69.10
2022-09-17T02:54:46.041Z,68.90
2022-09-17T02:57:20.773Z,69.00
2022-09-17T03:00:06.357Z,68.90
2022-09-17T03:02:38.673Z,69.00
2022-09-17T03:05:06.801Z,69.00
2022-09-17T03:07:33.447Z,68.90
2022-09-17T03:10:00.770Z,69.00
2022-09-17T03:12:27.539Z,69.20
2022-09-17T03:14:54.119Z,69.00
2022-09-17T03:17:20.737Z,69.00
2022-09-17T03:19:47.324Z,69.00
2022-09-17T03:22:14.135Z,69.70
2022-09-17T03:24:40.828Z,69.10
2022-09-17T03:27:07.447Z,69.00
2022-09-17T03:29:34.057Z,69.00
2022-09-17T03:32:01.103Z,69.10
2022-09-17T03:34:27.712Z,69.00
2022-09-17T03:36:54.365Z,69.00
2022-09-17T03:39:20.989Z,69.10
2022-09-17T03:41:47.653Z,69.10
2022-09-17T03:44:15.440Z,69.10
2022-09-17T03:46:42.087Z,69.20
2022-09-17T03:49:09.064Z,69.10
2022-09-17T03:51:35.718Z,69.00
2022-09-17T03:54:03.260Z,69.00
2022-09-17T03:56:29.941Z,69.10
2022-09-17T03:59:00.387Z,69.10
2022-09-17T04:01:27.759Z,69.10
2022-09-17T04:03:54.556Z,69.80
2022-09-17T04:06:21.248Z,69.30
2022-09-17T04:08:47.957Z,69.20
2022-09-17T04:11:14.667Z,69.30
2022-09-17T04:13:41.437Z,69.30
2022-09-17T04:16:08.134Z,69.20
2022-09-17T04:18:34.882Z,69.30
2022-09-17T04:21:01.535Z,69.80
2022-09-17T04:23:28.158Z,69.10
2022-09-17T04:25:54.847Z,69.10
2022-09-17T04:28:21.470Z,69.20
2022-09-17T04:30:48.389Z,69.20
2022-09-17T04:33:15.383Z,69.10
2022-09-17T04:35:42.068Z,69.20
2022-09-17T04:38:09.247Z,69.20
2022-09-17T04:40:36.088Z,69.20
2022-09-17T04:43:03.449Z,69.20
2022-09-17T04:45:30.920Z,69.20
2022-09-17T04:47:58.402Z,69.20
2022-09-17T04:50:25.047Z,69.30
2022-09-17T04:52:51.700Z,69.20
2022-09-17T04:55:18.374Z,69.30
2022-09-17T04:57:48.911Z,69.30
2022-09-17T05:00:17.671Z,69.30
2022-09-17T05:02:45.280Z,69.40
2022-09-17T05:05:11.891Z,69.20
2022-09-17T05:07:39.455Z,69.40
2022-09-17T05:10:07.027Z,69.30
2022-09-17T05:12:34.592Z,69.30
2022-09-17T05:15:02.065Z,69.30
2022-09-17T05:17:28.706Z,69.40
2022-09-17T05:19:55.308Z,69.40
2022-09-17T05:22:21.917Z,69.40
2022-09-17T05:24:48.703Z,69.50
2022-09-17T05:27:15.353Z,69.50
2022-09-17T05:29:41.980Z,69.40
2022-09-17T05:32:08.602Z,69.50
2022-09-17T05:34:35.700Z,69.50
2022-09-17T05:37:02.365Z,69.40
2022-09-17T05:39:28.982Z,69.50
2022-09-17T05:41:55.595Z,69.40
2022-09-17T05:44:22.362Z,69.30
2022-09-17T05:46:49.074Z,69.40
2022-09-17T05:49:15.730Z,69.50
2022-09-17T05:51:42.497Z,69.40
2022-09-17T05:54:11.967Z,69.40
2022-09-17T05:56:38.671Z,69.40
2022-09-17T05:59:06.957Z,69.30
2022-09-17T06:01:33.656Z,69.40
2022-09-17T06:04:02.586Z,69.40
2022-09-17T06:06:32.787Z,69.40
2022-09-17T06:08:59.951Z,69.40
2022-09-17T06:11:26.680Z,69.30
2022-09-17T06:13:54.056Z,69.40
2022-09-17T06:16:21.462Z,69.40
2022-09-17T06:18:49.988Z,69.30
2022-09-17T06:21:19.545Z,69.40
2022-09-17T06:23:46.159Z,69.40
2022-09-17T06:26:12.841Z,69.50
2022-09-17T06:28:41.870Z,69.40
2022-09-17T06:31:10.061Z,69.50
2022-09-17T06:33:36.900Z,69.50
2022-09-17T06:36:05.947Z,69.50
2022-09-17T06:38:35.363Z,69.50
2022-09-17T06:41:02.503Z,69.60
2022-09-17T06:43:29.167Z,69.60
2022-09-17T06:45:59.951Z,69.90
2022-09-17T06:48:27.531Z,69.80
2022-09-17T06:50:54.632Z,69.80
2022-09-17T06:53:21.655Z,69.80
2022-09-17T06:55:48.507Z,69.70
2022-09-17T06:58:15.151Z,69.60
2022-09-17T07:00:41.911Z,69.80
2022-09-17T07:03:09.078Z,69.70
2022-09-17T07:05:35.958Z,69.60
2022-09-17T07:08:05.582Z,69.70
2022-09-17T07:10:32.248Z,69.60
2022-09-17T07:12:59.432Z,69.60
2022-09-17T07:15:26.186Z,69.60
2022-09-17T07:17:53.464Z,69.70
2022-09-17T07:20:20.079Z,69.70
2022-09-17T07:22:54.841Z,69.70
2022-09-17T07:25:21.510Z,69.70
2022-09-17T07:27:48.163Z,69.70
2022-09-17T07:30:15.424Z,69.60
2022-09-17T07:32:42.282Z,70.30
2022-09-17T07:35:09.050Z,69.80
2022-09-17T07:37:35.818Z,69.80
2022-09-17T07:40:02.711Z,69.70
2022-09-17T07:42:29.466Z,69.80
2022-09-17T07:45:01.224Z,69.80
2022-09-17T07:47:28.801Z,69.90
2022-09-17T07:49:55.410Z,69.90
2022-09-17T07:52:22.119Z,69.80
2022-09-17T07:54:48.748Z,70.00
2022-09-17T07:57:15.412Z,69.80
2022-09-17T07:59:42.087Z,69.90
2022-09-17T08:02:14.972Z,70.00
2022-09-17T08:04:42.793Z,70.00
2022-09-17T08:07:13.586Z,70.00
2022-09-17T08:09:40.317Z,70.00
2022-09-17T08:12:07.225Z,70.10
2022-09-17T08:14:33.958Z,69.90
2022-09-17T08:17:00.622Z,70.00
2022-09-17T08:19:29.790Z,69.90
2022-09-17T08:21:56.668Z,69.90
2022-09-17T08:24:23.563Z,69.90
2022-09-17T08:26:50.263Z,69.90
2022-09-17T08:29:16.875Z,69.70
2022-09-17T08:31:43.551Z,69.60
2022-09-17T08:34:10.423Z,70.10
2022-09-17T08:36:37.111Z,69.90
2022-09-17T08:39:03.965Z,70.00
2022-09-17T08:41:40.598Z,70.00
2022-09-17T08:44:25.742Z,69.80
2022-09-17T08:46:54.683Z,69.90
2022-09-17T08:49:40.317Z,70.00
2022-09-17T08:52:18.907Z,70.10
2022-09-17T08:54:51.688Z,70.20
2022-09-17T08:57:21.407Z,70.10
2022-09-17T08:59:56.566Z,70.00
2022-09-17T09:02:32.165Z,70.10
2022-09-17T09:04:58.944Z,70.10
2022-09-17T09:07:35.966Z,70.10
2022-09-17T09:10:14.090Z,70.10
2022-09-17T09:12:42.757Z,70.00
2022-09-17T09:15:09.561Z,70.10
2022-09-17T09:17:41.605Z,70.00
2022-09-17T09:20:17.648Z,70.00
2022-09-17T09:22:44.229Z,70.60
2022-09-17T09:25:24.447Z,70.70
2022-09-17T09:27:56.797Z,70.70
2022-09-17T09:30:25.109Z,70.60
2022-09-17T09:32:57.103Z,70.30
2022-09-17T09:35:31.674Z,70.30
2022-09-17T09:37:58.295Z,70.20
2022-09-17T09:40:30.958Z,70.20
2022-09-17T09:43:00.717Z,70.20
2022-09-17T09:45:41.553Z,70.00
2022-09-17T09:48:32.960Z,70.00
2022-09-17T09:51:18.234Z,69.80
2022-09-17T09:53:50.613Z,69.80
2022-09-17T09:56:32.284Z,70.60
2022-09-17T09:58:58.995Z,69.80
2022-09-17T10:01:27.144Z,70.00
2022-09-17T10:03:55.792Z,69.90
2022-09-17T10:06:22.454Z,69.70
2022-09-17T10:08:54.800Z,69.70
2022-09-17T10:11:23.121Z,69.40
2022-09-17T10:13:50.153Z,69.30
2022-09-17T10:16:17.918Z,69.10
2022-09-17T10:18:45.065Z,69.00
2022-09-17T10:21:22.185Z,69.00
2022-09-17T10:23:49.957Z,69.00
2022-09-17T10:26:24.168Z,69.00
2022-09-17T10:28:51.735Z,69.00
2022-09-17T10:31:19.014Z,68.90
2022-09-17T10:33:59.086Z,68.90
2022-09-17T10:36:40.850Z,68.90
2022-09-17T10:39:26.513Z,68.80
2022-09-17T10:41:57.705Z,69.00
2022-09-17T10:44:25.491Z,69.00
2022-09-17T10:46:52.733Z,69.00
2022-09-17T10:49:41.984Z,69.00
2022-09-17T10:52:10.705Z,69.10
2022-09-17T10:54:49.818Z,69.30
2022-09-17T10:57:21.454Z,69.10
2022-09-17T11:00:11.611Z,69.20
2022-09-17T11:02:58.602Z,69.20
2022-09-17T11:05:44.250Z,69.20
2022-09-17T11:08:29.705Z,69.20
2022-09-17T11:10:59.436Z,69.30
2022-09-17T11:13:41.342Z,69.40
2022-09-17T11:16:17.353Z,69.40
2022-09-17T11:18:53.410Z,69.40
2022-09-17T11:21:30.914Z,69.40
2022-09-17T11:24:17.769Z,69.40
2022-09-17T11:27:03.614Z,69.40
2022-09-17T11:29:49.093Z,69.40
2022-09-17T11:32:26.367Z,69.50
2022-09-17T11:35:06.807Z,69.40
2022-09-17T11:37:35.502Z,69.40
2022-09-17T11:40:40.758Z,69.40
2022-09-17T11:43:16.540Z,69.40
2022-09-17T11:45:54.251Z,69.40
2022-09-17T11:48:22.538Z,69.40
2022-09-17T11:50:56.926Z,69.30
2022-09-17T11:53:29.910Z,69.40
2022-09-17T11:56:11.363Z,69.40
2022-09-17T11:58:56.858Z,69.40
2022-09-17T12:01:32.837Z,69.50
2022-09-17T12:04:19.761Z,69.60
2022-09-17T12:06:53.748Z,69.40
2022-09-17T12:09:22.150Z,69.60
2022-09-17T12:12:03.746Z,69.60
2022-09-17T12:14:36.211Z,69.50
2022-09-17T12:17:03.712Z,69.50
2022-09-17T12:19:40.197Z,69.40
2022-09-17T12:22:26.524Z,69.40
2022-09-17T12:24:54.146Z,69.30
2022-09-17T12:27:59.529Z,69.20
2022-09-17T12:30:44.291Z,69.10
2022-09-17T12:33:18.990Z,69.00
2022-09-17T12:36:04.579Z,68.80
2022-09-17T12:38:35.362Z,68.70
2022-09-17T12:41:16.560Z,68.70
2022-09-17T12:43:55.342Z,68.80
2022-09-17T12:46:28.142Z,68.70
2022-09-17T12:49:14.875Z,68.90
2022-09-17T12:51:59.226Z,68.50
2022-09-17T12:54:45.411Z,68.40
2022-09-17T12:57:12.315Z,68.40
2022-09-17T12:59:44.379Z,68.40
2022-09-17T13:02:43.669Z,69.10
2022-09-17T13:05:13.026Z,68.40
2022-09-17T13:07:48.000Z,68.20
2022-09-17T13:10:20.538Z,68.30
2022-09-17T13:12:56.505Z,68.20
2022-09-17T13:15:26.197Z,68.10
2022-09-17T13:18:23.690Z,68.00
2022-09-17T13:20:54.713Z,68.10
2022-09-17T13:23:36.415Z,68.00
2022-09-17T13:26:06.118Z,68.00
2022-09-17T13:28:39.646Z,68.10
2022-09-17T13:31:09.174Z,68.10
2022-09-17T13:33:54.781Z,68.10
2022-09-17T13:36:40.328Z,68.10
2022-09-17T13:39:08.641Z,68.20
2022-09-17T13:41:36.779Z,68.10
2022-09-17T13:44:07.172Z,68.10
2022-09-17T13:46:35.221Z,68.10
2022-09-17T13:49:11.604Z,68.10
2022-09-17T13:51:38.224Z,68.30
2022-09-17T13:54:06.571Z,68.10
2022-09-17T13:56:36.793Z,68.20
2022-09-17T13:59:08.183Z,68.00
2022-09-17T14:02:03.955Z,67.90
2022-09-17T14:04:33.630Z,68.10
2022-09-17T14:07:00.570Z,68.20
2022-09-17T14:09:32.110Z,68.10
2022-09-17T14:12:00.782Z,68.10
2022-09-17T14:14:27.439Z,67.80
2022-09-17T14:16:54.080Z,67.80
2022-09-17T14:19:33.057Z,67.20
2022-09-17T14:22:02.710Z,67.10
2022-09-17T14:24:33.846Z,67.60
2022-09-17T14:27:19.398Z,67.70
2022-09-17T14:29:47.128Z,67.50
2022-09-17T14:32:15.890Z,67.60
2022-09-17T14:34:42.625Z,67.40
2022-09-17T14:37:14.316Z,67.40
2022-09-17T14:39:41.035Z,67.40
2022-09-17T14:42:13.391Z,67.50
2022-09-17T14:44:48.021Z,67.20
2022-09-17T14:47:16.901Z,67.00
2022-09-17T14:49:43.609Z,66.80
2022-09-17T14:52:24.071Z,66.80
2022-09-17T14:55:08.661Z,67.20
2022-09-17T14:57:35.845Z,67.00
2022-09-17T15:00:02.762Z,66.80
2022-09-17T15:02:35.636Z,66.90
2022-09-17T15:05:04.329Z,67.20
2022-09-17T15:07:30.946Z,66.70
2022-09-17T15:10:08.603Z,66.80
2022-09-17T15:12:35.831Z,66.40
2022-09-17T15:15:02.515Z,66.40
2022-09-17T15:17:29.502Z,65.90
2022-09-17T15:19:58.362Z,66.30
2022-09-17T15:22:29.799Z,66.40
2022-09-17T15:24:56.381Z,66.20
2022-09-17T15:27:29.265Z,65.40
2022-09-17T15:29:59.018Z,65.80
2022-09-17T15:32:25.732Z,66.20
2022-09-17T15:35:10.991Z,66.40
2022-09-17T15:38:18.523Z,66.60
2022-09-17T15:40:39.803Z,66.80
2022-09-17T15:43:16.223Z,66.60
2022-09-17T15:45:43.104Z,66.70
2022-09-17T15:48:28.083Z,67.00
2022-09-17T15:50:55.854Z,66.70
2022-09-17T15:53:23.904Z,66.90
2022-09-17T15:56:14.498Z,67.10
2022-09-17T15:58:41.079Z,67.00
2022-09-17T16:01:10.472Z,67.20
2022-09-17T16:03:40.422Z,66.90
2022-09-17T16:06:19.168Z,66.90
2022-09-17T16:08:49.583Z,67.00
2022-09-17T16:11:16.893Z,67.20
2022-09-17T16:13:45.895Z,66.80
2022-09-17T16:16:17.096Z,66.80
2022-09-17T16:18:43.874Z,66.60
2022-09-17T16:21:10.786Z,65.50
2022-09-17T16:23:37.610Z,66.20
2022-09-17T16:26:09.818Z,66.20
2022-09-17T16:28:36.594Z,66.10
2022-09-17T16:31:03.269Z,65.90
2022-09-17T16:33:29.955Z,65.80
2022-09-17T16:35:57.209Z,65.80
2022-09-17T16:38:23.922Z,65.90
2022-09-17T16:40:51.779Z,66.00
2022-09-17T16:43:18.908Z,65.80
2022-09-17T16:45:58.134Z,65.70
2022-09-17T16:48:25.011Z,65.80
2022-09-17T16:50:51.601Z,65.60
2022-09-17T16:53:18.344Z,65.60
2022-09-17T16:55:45.016Z,65.80
2022-09-17T16:58:11.665Z,65.70
2022-09-17T17:00:38.386Z,65.90
2022-09-17T17:03:05.330Z,65.90
2022-09-17T17:05:35.835Z,65.90
2022-09-17T17:08:06.637Z,65.70
2022-09-17T17:10:33.634Z,65.70
2022-09-17T17:13:00.266Z,65.80
2022-09-17T17:15:27.214Z,65.90
2022-09-17T17:17:53.834Z,66.00
2022-09-17T17:20:20.673Z,66.00
2022-09-17T17:22:47.272Z,66.00
2022-09-17T17:25:14.705Z,66.10
2022-09-17T17:27:41.370Z,66.10
2022-09-17T17:30:09.153Z,66.00
2022-09-17T17:32:36.742Z,66.00
2022-09-17T17:35:03.948Z,66.00
2022-09-17T17:37:30.583Z,66.10
2022-09-17T17:39:58.324Z,66.30
2022-09-17T17:42:25.061Z,65.50
2022-09-17T17:44:51.722Z,65.40
2022-09-17T17:47:18.385Z,65.90
2022-09-17T17:49:45.023Z,66.20
2022-09-17T17:52:11.685Z,66.80
2022-09-17T17:54:38.291Z,65.90
2022-09-17T17:57:05.453Z,66.10
2022-09-17T17:59:32.447Z,66.30
2022-09-17T18:01:59.455Z,66.30
2022-09-17T18:04:26.210Z,66.00
2022-09-17T18:06:52.801Z,66.10
2022-09-17T18:09:19.443Z,66.00
2022-09-17T18:11:46.064Z,66.10
2022-09-17T18:14:14.134Z,66.00
2022-09-17T18:16:40.887Z,66.00
2022-09-17T18:19:09.682Z,66.00
2022-09-17T18:21:36.312Z,66.00
2022-09-17T18:24:03.380Z,66.00
2022-09-17T18:26:31.617Z,66.10
2022-09-17T18:28:58.252Z,66.20
2022-09-17T18:31:29.022Z,66.10
2022-09-17T18:33:55.709Z,66.00
2022-09-17T18:36:22.366Z,65.90
2022-09-17T18:38:52.188Z,65.80
2022-09-17T18:41:18.810Z,65.60
2022-09-17T18:43:45.506Z,65.50
2022-09-17T18:46:12.254Z,65.50
2022-09-17T18:48:38.977Z,65.40
2022-09-17T18:51:06.958Z,65.30
2022-09-17T18:53:36.127Z,65.20
2022-09-17T18:56:04.970Z,66.00
2022-09-17T18:58:31.692Z,65.20
2022-09-17T19:00:58.334Z,65.40
2022-09-17T19:03:25.151Z,65.30
2022-09-17T19:05:51.876Z,65.30
2022-09-17T19:08:22.500Z,65.20
2022-09-17T19:10:52.399Z,65.30
2022-09-17T19:13:19.289Z,65.40
2022-09-17T19:15:46.074Z,65.50
2022-09-17T19:18:12.994Z,65.50
2022-09-17T19:20:39.742Z,65.60
2022-09-17T19:23:07.015Z,66.40
2022-09-17T19:25:37.128Z,65.80
2022-09-17T19:28:04.235Z,65.80
2022-09-17T19:30:31.187Z,65.80
2022-09-17T19:33:01.106Z,66.00
2022-09-17T19:35:28.049Z,66.00
2022-09-17T19:37:58.273Z,66.00
2022-09-17T19:40:25.236Z,66.20
2022-09-17T19:42:55.943Z,66.10
2022-09-17T19:45:23.291Z,66.20
2022-09-17T19:47:51.314Z,66.20
2022-09-17T19:50:18.340Z,66.30
2022-09-17T19:52:44.946Z,66.40
2022-09-17T19:55:13.085Z,66.50
2022-09-17T19:57:40.222Z,66.50
2022-09-17T20:00:07.919Z,66.50
2022-09-17T20:02:34.594Z,66.70
2022-09-17T20:05:01.241Z,66.50
2022-09-17T20:07:28.925Z,66.80
2022-09-17T20:09:55.665Z,66.80
2022-09-17T20:12:22.290Z,66.70
2022-09-17T20:14:48.953Z,66.80
2022-09-17T20:17:15.641Z,66.80
2022-09-17T20:19:42.486Z,66.80
2022-09-17T20:22:09.166Z,67.00
2022-09-17T20:24:35.827Z,66.90
2022-09-17T20:27:02.460Z,67.10
2022-09-17T20:29:29.211Z,67.10
2022-09-17T20:31:55.998Z,67.10
2022-09-17T20:34:22.659Z,67.10
2022-09-17T20:36:49.263Z,67.20
2022-09-17T20:39:22.338Z,67.10
2022-09-17T20:41:49.751Z,67.10
2022-09-17T20:44:17.737Z,67.00
2022-09-17T20:46:44.481Z,66.70
2022-09-17T20:49:11.249Z,67.10
2022-09-17T20:51:37.972Z,67.00
2022-09-17T20:54:04.945Z,66.80
2022-09-17T20:56:33.491Z,67.00
2022-09-17T20:59:08.249Z,67.00
2022-09-17T21:01:37.466Z,67.00
2022-09-17T21:04:05.716Z,67.10
2022-09-17T21:06:33.720Z,67.00
2022-09-17T21:09:00.456Z,66.90
2022-09-17T21:11:27.249Z,67.10
2022-09-17T21:13:53.920Z,66.90
2022-09-17T21:16:20.977Z,66.70
2022-09-17T21:18:48.079Z,67.00
2022-09-17T21:21:15.867Z,67.00
2022-09-17T21:23:42.924Z,66.90
2022-09-17T21:26:16.960Z,66.90
2022-09-17T21:28:44.640Z,66.90
2022-09-17T21:31:12.462Z,67.00
2022-09-17T21:33:39.736Z,67.00
2022-09-17T21:36:10.578Z,67.00
2022-09-17T21:38:37.344Z,66.90
2022-09-17T21:41:05.412Z,66.70
2022-09-17T21:43:32.099Z,66.80
2022-09-17T21:45:59.588Z,66.60
2022-09-17T21:48:26.363Z,66.60
2022-09-17T21:50:53.373Z,66.70
2022-09-17T21:53:20.069Z,66.50
2022-09-17T21:55:46.691Z,66.50
2022-09-17T21:58:13.434Z,66.40
2022-09-17T22:00:40.106Z,66.80
2022-09-17T22:03:06.888Z,67.40
2022-09-17T22:05:33.547Z,67.30
2022-09-17T22:08:00.148Z,67.30
2022-09-17T22:10:26.731Z,66.90
2022-09-17T22:12:53.646Z,67.30
2022-09-17T22:15:20.294Z,67.30
2022-09-17T22:17:46.935Z,67.10
2022-09-17T22:20:14.194Z,67.40
2022-09-17T22:22:40.812Z,67.30
2022-09-17T22:25:07.720Z,67.30
2022-09-17T22:27:34.354Z,67.30
2022-09-17T22:30:00.937Z,66.80
2022-09-17T22:32:28.686Z,66.80
2022-09-17T22:34:55.311Z,66.90
2022-09-17T22:37:21.922Z,67.40
2022-09-17T22:39:48.511Z,67.70
2022-09-17T22:42:15.099Z,67.60
2022-09-17T22:44:41.710Z,67.90
2022-09-17T22:47:08.633Z,67.60
2022-09-17T22:49:35.233Z,67.40
2022-09-17T22:52:01.917Z,67.30
2022-09-17T22:54:28.519Z,67.20
2022-09-17T22:56:55.173Z,67.20
2022-09-17T22:59:21.903Z,67.00
2022-09-17T23:01:48.547Z,67.00
2022-09-17T23:04:15.345Z,67.60
2022-09-17T23:06:42.275Z,67.10
2022-09-17T23:09:09.031Z,67.10
2022-09-17T23:11:37.482Z,67.20
2022-09-17T23:14:08.019Z,67.20
2022-09-17T23:16:36.230Z,67.20
2022-09-17T23:19:03.171Z,67.20
2022-09-17T23:21:29.794Z,67.20
2022-09-17T23:23:56.990Z,67.30
2022-09-17T23:26:24.715Z,67.30
2022-09-17T23:28:51.653Z,67.30
2022-09-17T23:31:20.178Z,67.30
2022-09-17T23:33:47.521Z,67.30
2022-09-17T23:36:15.848Z,67.30
2022-09-17T23:38:43.369Z,67.30
2022-09-17T23:41:11.339Z,67.50
2022-09-17T23:43:38.180Z,67.30
2022-09-17T23:46:04.977Z,67.40
2022-09-17T23:48:31.770Z,67.40
2022-09-17T23:50:58.503Z,67.30
2022-09-17T23:53:25.155Z,68.20
2022-09-17T23:55:51.839Z,67.50
2022-09-17T23:58:18.475Z,67.40
